createdAt,value
2022-11-30T10:01:19.501Z,60.90
2022-11-30T10:02:15.814Z,67.00
2022-11-30T10:03:08.049Z,75.40
2022-11-30T10:03:59.660Z,80.20
2022-11-30T10:04:51.016Z,78.10
2022-11-30T10:05:45.265Z,82.70
2022-11-30T10:06:54.948Z,80.10
2022-11-30T10:07:49.256Z,77.60
2022-11-30T10:08:59.433Z,77.90
2022-11-30T10:10:32.110Z,79.80
2022-11-30T10:11:59.523Z,76.80
2022-11-30T10:12:56.993Z,83.10
2022-11-30T10:14:03.917Z,86.60
2022-11-30T10:15:04.272Z,85.50
2022-11-30T10:16:03.902Z,86.60
2022-11-30T10:17:14.155Z,84.80
2022-11-30T10:18:15.250Z,90.00
2022-11-30T10:19:24.944Z,90.80
2022-11-30T10:20:25.449Z,93.20
2022-11-30T10:21:28.804Z,94.00
2022-11-30T10:22:32.258Z,100.90
2022-11-30T10:23:35.566Z,96.80
2022-11-30T10:24:52.763Z,103.80
2022-11-30T10:25:57.421Z,100.80
2022-11-30T10:27:42.707Z,105.20
2022-11-30T10:28:47.971Z,111.90
2022-11-30T10:29:41.876Z,113.30
2022-11-30T10:30:36.238Z,114.90
2022-11-30T10:31:35.517Z,113.00
2022-11-30T10:32:32.528Z,111.70
2022-11-30T10:33:27.349Z,118.20
2022-11-30T10:34:21.374Z,124.50
2022-11-30T10:35:33.307Z,118.30
2022-11-30T10:36:33.599Z,123.80
2022-11-30T10:37:31.754Z,120.60
2022-11-30T10:38:30.517Z,127.60
2022-11-30T10:39:24.638Z,123.50
2022-11-30T10:40:45.351Z,129.40
2022-11-30T10:42:02.934Z,132.50
2022-11-30T10:43:15.567Z,133.00
2022-11-30T10:44:12.655Z,136.50
2022-11-30T10:45:06.242Z,142.90
2022-11-30T10:45:57.395Z,150.40
2022-11-30T10:46:53.213Z,150.50
2022-11-30T10:47:48.353Z,153.80
2022-11-30T10:48:43.289Z,143.90
2022-11-30T10:49:35.662Z,158.70
2022-11-30T10:50:28.070Z,150.50
2022-11-30T10:51:20.237Z,156.10
2022-11-30T10:52:12.882Z,160.80
2022-11-30T10:53:04.028Z,174.10
2022-11-30T10:53:55.423Z,164.00
2022-11-30T10:54:47.440Z,172.00
2022-11-30T10:55:40.735Z,161.40
2022-11-30T10:56:31.973Z,167.40
2022-11-30T10:57:27.642Z,164.20
2022-11-30T10:58:22.109Z,160.10
2022-11-30T10:59:22.586Z,176.70
2022-11-30T11:00:15.307Z,184.40
2022-11-30T11:01:08.489Z,173.90
2022-11-30T11:01:59.693Z,172.80
2022-11-30T11:02:51.734Z,176.00
2022-11-30T11:03:43.235Z,195.10
2022-11-30T11:04:34.631Z,185.80
2022-11-30T11:05:27.114Z,187.60
2022-11-30T11:06:23.415Z,186.70
2022-11-30T11:07:14.615Z,189.70
2022-11-30T11:08:24.603Z,189.10
2022-11-30T11:09:25.046Z,196.60
2022-11-30T11:10:17.918Z,186.30
2022-11-30T11:11:28.148Z,182.50
2022-11-30T11:12:25.528Z,199.50
2022-11-30T11:13:17.987Z,198.00
2022-11-30T11:14:09.376Z,198.90
2022-11-30T11:15:17.152Z,195.80
2022-11-30T11:16:09.552Z,191.80
2022-11-30T11:17:02.828Z,202.10
2022-11-30T11:18:06.365Z,204.00
2022-11-30T11:18:57.946Z,197.40
2022-11-30T11:19:50.436Z,208.60
2022-11-30T11:20:44.867Z,220.10
2022-11-30T11:21:36.617Z,215.80
2022-11-30T11:23:21.483Z,200.20
2022-11-30T11:24:17.794Z,207.80
2022-11-30T11:25:20.824Z,213.50
2022-11-30T11:26:20.338Z,215.40
2022-11-30T11:27:20.553Z,231.40
2022-11-30T11:28:17.207Z,219.60
2022-11-30T11:29:31.342Z,226.70
2022-11-30T11:30:25.466Z,219.80
2022-11-30T11:31:19.729Z,226.80
2022-11-30T11:32:19.187Z,230.70
2022-11-30T11:33:13.636Z,249.80
2022-11-30T11:34:17.824Z,226.90
2022-11-30T11:35:27.903Z,219.20
2022-11-30T11:36:25.250Z,232.30
2022-11-30T11:37:20.177Z,234.90
2022-11-30T11:38:18.344Z,245.50
2022-11-30T11:40:00.674Z,240.30
2022-11-30T11:40:53.756Z,236.20
2022-11-30T11:41:45.287Z,226.50
2022-11-30T11:42:41.768Z,226.40
2022-11-30T11:43:34.784Z,240.90
2022-11-30T11:44:27.297Z,231.40
2022-11-30T11:45:22.523Z,241.90
2022-11-30T11:46:14.399Z,219.00
2022-11-30T11:47:07.546Z,242.30
2022-11-30T11:48:03.927Z,234.40
2022-11-30T11:49:02.584Z,234.10
2022-11-30T11:50:08.790Z,222.40
2022-11-30T11:51:07.512Z,218.80
2022-11-30T11:52:00.969Z,211.00
2022-11-30T11:53:06.922Z,212.70
2022-11-30T11:54:19.866Z,214.20
2022-11-30T11:55:18.296Z,197.80
2022-11-30T11:56:12.057Z,205.40
2022-11-30T11:57:03.767Z,194.10
2022-11-30T11:58:00.582Z,182.20
2022-11-30T11:58:59.791Z,182.70
2022-11-30T12:00:12.511Z,180.20
2022-11-30T12:01:38.593Z,176.70
2022-11-30T12:02:32.904Z,158.50
2022-11-30T12:03:30.552Z,174.40
2022-11-30T12:04:41.589Z,166.20
2022-11-30T12:05:35.878Z,167.10
2022-11-30T12:06:27.829Z,175.70
2022-11-30T12:07:37.375Z,176.50
2022-11-30T12:08:33.416Z,153.90
2022-11-30T12:09:28.687Z,152.70
2022-11-30T12:11:44.921Z,149.90
2022-11-30T12:12:39.943Z,150.90
2022-11-30T12:13:42.001Z,146.60
2022-11-30T12:14:35.236Z,141.80
2022-11-30T12:15:31.161Z,151.20
2022-11-30T12:16:32.988Z,146.00
2022-11-30T12:17:30.626Z,144.40
2022-11-30T12:18:24.895Z,137.40
2022-11-30T12:19:19.569Z,142.50
2022-11-30T12:20:20.096Z,145.70
2022-11-30T12:21:14.649Z,131.70
2022-11-30T12:22:09.001Z,131.90
2022-11-30T12:23:06.144Z,131.10
2022-11-30T12:24:15.798Z,128.50
2022-11-30T12:25:15.351Z,127.50
2022-11-30T12:26:12.907Z,123.30
2022-11-30T12:27:21.689Z,123.80
2022-11-30T12:28:23.472Z,122.40
2022-11-30T12:29:23.238Z,122.20
2022-11-30T12:30:26.511Z,117.00
2022-11-30T12:31:18.565Z,118.80
2022-11-30T12:32:12.987Z,114.50
2022-11-30T12:33:04.438Z,117.70
2022-11-30T12:34:18.904Z,113.30
2022-11-30T12:35:14.871Z,113.10
2022-11-30T12:36:12.137Z,112.90
2022-11-30T12:37:06.095Z,109.70
2022-11-30T12:38:05.917Z,116.30
2022-11-30T12:39:01.379Z,114.00
2022-11-30T12:40:11.805Z,111.20
2022-11-30T12:41:06.033Z,107.10
2022-11-30T12:42:21.189Z,110.40
2022-11-30T12:43:12.474Z,98.40
2022-11-30T12:44:04.205Z,104.00
2022-11-30T12:45:05.011Z,98.60
2022-11-30T12:46:15.155Z,97.30
2022-11-30T12:47:20.352Z,98.10
2022-11-30T12:48:15.000Z,94.20
2022-11-30T12:49:21.897Z,93.60
2022-11-30T12:50:32.198Z,89.90
2022-11-30T12:51:47.829Z,93.00
2022-11-30T12:52:48.381Z,91.30
2022-11-30T12:53:45.539Z,87.90
2022-11-30T12:54:39.743Z,87.20
2022-11-30T12:56:00.789Z,91.70
2022-11-30T12:56:51.879Z,86.80
2022-11-30T12:58:01.505Z,88.60
2022-11-30T12:59:14.706Z,86.50
2022-11-30T13:00:32.399Z,75.10
2022-11-30T13:01:29.591Z,81.50
2022-11-30T13:02:33.597Z,77.40
2022-11-30T13:03:27.710Z,75.40
2022-11-30T13:04:21.378Z,81.10
2022-11-30T13:05:15.617Z,69.00
2022-11-30T13:06:09.676Z,75.60
2022-11-30T13:07:04.677Z,67.60
2022-11-30T13:08:04.509Z,69.80
2022-11-30T13:09:02.517Z,73.40
2022-11-30T13:09:56.590Z,68.60
2022-11-30T13:10:49.478Z,70.80
2022-11-30T13:11:43.433Z,69.30
2022-11-30T13:12:36.312Z,65.20
2022-11-30T13:13:32.139Z,63.10
2022-11-30T13:14:24.575Z,60.90
2022-11-30T13:15:20.075Z,68.20
2022-11-30T13:16:11.628Z,63.20
2022-11-30T13:17:04.973Z,58.10
2022-11-30T13:17:56.887Z,63.80
2022-11-30T13:18:49.143Z,61.40
2022-11-30T13:19:59.846Z,59.10
2022-11-30T13:20:56.381Z,55.70
2022-11-30T13:21:52.325Z,65.50
2022-11-30T13:22:55.439Z,58.20
2022-11-30T13:24:02.426Z,56.10
2022-11-30T13:24:58.991Z,59.90
2022-11-30T13:26:09.705Z,56.00
2022-11-30T13:27:06.136Z,53.10
2022-11-30T13:28:12.927Z,51.80
2022-11-30T13:29:08.893Z,52.00
2022-11-30T13:30:04.103Z,56.90
2022-11-30T13:31:07.367Z,50.10
2022-11-30T13:32:05.330Z,52.40
2022-11-30T13:33:59.192Z,52.50
2022-11-30T13:34:50.858Z,50.70
2022-11-30T13:35:50.442Z,50.40
2022-11-30T13:36:44.642Z,52.80
2022-11-30T13:37:37.498Z,49.60
2022-11-30T13:38:36.873Z,51.70
2022-11-30T13:39:42.765Z,53.10
2022-11-30T13:40:34.342Z,49.40
2022-11-30T13:41:25.546Z,53.10
2022-11-30T13:42:31.509Z,50.70
2022-11-30T13:43:23.819Z,53.50
2022-11-30T13:44:41.094Z,50.50
2022-11-30T13:45:34.063Z,47.30
2022-11-30T13:46:25.550Z,47.80
2022-11-30T13:47:35.085Z,51.00
2022-11-30T13:48:31.749Z,49.30
2022-11-30T13:49:25.168Z,50.10
2022-11-30T13:50:22.399Z,52.00
2022-11-30T13:51:33.439Z,51.70
2022-11-30T13:52:43.706Z,50.40
2022-11-30T13:53:38.600Z,49.90
2022-11-30T13:54:39.846Z,49.60
2022-11-30T13:55:43.561Z,48.60
2022-11-30T13:56:48.755Z,47.80
2022-11-30T13:57:42.601Z,49.00
2022-11-30T13:58:34.197Z,50.00
2022-11-30T13:59:25.675Z,48.70
2022-11-30T14:00:29.901Z,48.40
2022-11-30T14:01:25.981Z,50.10
2022-11-30T14:02:34.255Z,47.40
2022-11-30T14:03:26.867Z,48.90
2022-11-30T14:04:17.916Z,51.90
2022-11-30T14:05:18.016Z,51.70
2022-11-30T14:06:44.911Z,49.10
2022-11-30T14:07:37.897Z,47.50
2022-11-30T14:08:36.895Z,47.90
2022-11-30T14:09:40.371Z,48.60
2022-11-30T14:10:35.252Z,51.80
2022-11-30T14:11:37.475Z,52.20
2022-11-30T14:12:32.588Z,46.40
2022-11-30T14:13:27.833Z,53.70
2022-11-30T14:14:43.489Z,51.80
2022-11-30T14:15:39.623Z,47.90
2022-11-30T14:16:31.354Z,50.70
2022-11-30T14:17:30.138Z,50.60
2022-11-30T14:18:23.369Z,47.80
2022-11-30T14:19:14.697Z,47.40
2022-11-30T14:20:15.965Z,47.40
2022-11-30T14:21:24.436Z,46.60
2022-11-30T14:22:16.257Z,49.20
2022-11-30T14:23:10.797Z,48.40
2022-11-30T14:24:05.312Z,50.60
2022-11-30T14:24:56.585Z,47.40
2022-11-30T14:25:49.693Z,49.60
2022-11-30T14:26:44.504Z,48.20
2022-11-30T14:27:35.926Z,51.30
2022-11-30T14:28:32.126Z,49.00
2022-11-30T14:29:25.699Z,46.60
2022-11-30T14:30:18.624Z,49.90
2022-11-30T14:31:11.353Z,46.20
2022-11-30T14:32:15.639Z,47.50
2022-11-30T14:33:15.293Z,47.60
2022-11-30T14:34:22.770Z,44.40
2022-11-30T14:35:16.424Z,47.00
2022-11-30T14:36:09.403Z,45.50
2022-11-30T14:37:03.103Z,51.70
2022-11-30T14:37:59.104Z,46.10
2022-11-30T14:38:50.842Z,46.40
2022-11-30T14:39:43.771Z,45.60
2022-11-30T14:40:35.182Z,48.80
2022-11-30T14:41:28.275Z,46.70
2022-11-30T14:42:23.487Z,48.70
2022-11-30T14:43:16.459Z,47.90
2022-11-30T14:44:14.288Z,49.70
2022-11-30T14:45:14.078Z,43.20
2022-11-30T14:46:09.195Z,48.30
2022-11-30T14:47:14.795Z,44.70
2022-11-30T14:48:07.904Z,45.80
2022-11-30T14:49:18.635Z,46.60
2022-11-30T14:50:21.019Z,44.40
2022-11-30T14:51:13.055Z,42.70
2022-11-30T14:53:01.713Z,41.00
2022-11-30T14:53:57.219Z,44.80
2022-11-30T14:55:09.145Z,43.00
2022-11-30T14:56:03.285Z,42.10
2022-11-30T14:56:59.118Z,44.30
2022-11-30T14:58:02.715Z,48.00
2022-11-30T14:59:05.632Z,41.70
2022-11-30T14:59:57.343Z,45.00
2022-11-30T15:00:49.649Z,41.50
2022-11-30T15:01:41.087Z,42.90
2022-11-30T15:02:35.517Z,42.60
2022-11-30T15:03:28.929Z,45.20
2022-11-30T15:04:20.604Z,41.10
2022-11-30T15:05:16.638Z,43.70
2022-11-30T15:06:08.225Z,41.30
2022-11-30T15:07:00.311Z,42.30
2022-11-30T15:07:51.807Z,45.40
2022-11-30T15:08:46.637Z,43.00
2022-11-30T15:09:40.685Z,45.80
2022-11-30T15:10:33.013Z,43.00
2022-11-30T15:11:24.929Z,46.00
2022-11-30T15:12:18.434Z,41.40
2022-11-30T15:13:12.673Z,44.10
2022-11-30T15:14:08.959Z,43.80
2022-11-30T15:15:18.362Z,38.90
2022-11-30T15:16:17.212Z,40.60
2022-11-30T15:17:14.191Z,39.40
2022-11-30T15:18:16.170Z,38.90
2022-11-30T15:19:27.507Z,39.00
2022-11-30T15:20:22.499Z,39.90
2022-11-30T15:21:19.520Z,43.10
2022-11-30T15:22:23.384Z,40.10
2022-11-30T15:23:17.933Z,40.40
2022-11-30T15:24:09.328Z,44.40
2022-11-30T15:25:00.602Z,41.30
2022-11-30T15:25:58.141Z,38.30
2022-11-30T15:26:52.719Z,40.30
2022-11-30T15:27:44.194Z,40.00
2022-11-30T15:28:38.690Z,37.20
2022-11-30T15:29:31.856Z,37.20
2022-11-30T15:30:23.084Z,36.60
2022-11-30T15:31:15.977Z,34.90
2022-11-30T15:32:14.502Z,38.00
2022-11-30T15:33:05.911Z,37.40
2022-11-30T15:33:57.259Z,34.10
2022-11-30T15:36:12.458Z,31.80
2022-11-30T15:36:59.553Z,37.00
2022-11-30T15:37:51.008Z,35.30
2022-11-30T15:38:47.510Z,39.80
2022-11-30T15:39:41.151Z,39.50
2022-11-30T15:40:33.226Z,36.90
2022-11-30T15:41:25.666Z,35.30
2022-11-30T15:42:19.331Z,35.40
2022-11-30T15:43:19.635Z,36.30
2022-11-30T15:44:22.891Z,36.00
2022-11-30T15:45:20.969Z,36.90
2022-11-30T15:47:07.932Z,36.40
2022-11-30T15:47:59.945Z,36.70
2022-11-30T15:49:03.631Z,35.00
2022-11-30T15:49:55.461Z,35.50
2022-11-30T15:50:47.096Z,35.10
2022-11-30T15:51:39.537Z,36.10
2022-11-30T16:31:34.991Z,22.40
2022-11-30T16:32:26.443Z,23.00
2022-11-30T16:33:20.535Z,23.20
2022-11-30T16:34:11.730Z,21.90
2022-11-30T16:35:02.920Z,22.70
2022-11-30T16:36:01.408Z,23.40
2022-11-30T16:36:52.982Z,21.90
2022-11-30T16:37:47.282Z,21.60
2022-11-30T16:38:38.800Z,21.60
2022-11-30T16:39:30.738Z,22.70
2022-11-30T16:40:22.198Z,22.90
2022-11-30T16:41:18.994Z,21.30
2022-11-30T16:42:13.110Z,20.30
2022-11-30T16:43:05.881Z,21.10
2022-11-30T16:44:00.609Z,24.30
2022-11-30T16:44:54.270Z,20.70
2022-11-30T16:45:46.748Z,20.60
2022-11-30T16:46:38.301Z,18.80
2022-11-30T16:47:29.627Z,20.60
2022-11-30T16:48:21.215Z,20.70
2022-11-30T16:50:04.840Z,18.20
2022-11-30T16:50:56.945Z,19.50
2022-11-30T16:51:48.729Z,18.80
2022-11-30T16:52:41.635Z,20.20
2022-11-30T16:53:33.006Z,19.60
2022-11-30T16:54:24.590Z,20.20
2022-11-30T16:55:21.099Z,19.90
2022-11-30T16:56:14.312Z,19.80
2022-11-30T16:57:05.382Z,18.30
2022-11-30T16:57:58.234Z,19.50
2022-11-30T16:58:50.260Z,18.50
2022-11-30T16:59:41.808Z,18.40
2022-11-30T17:00:33.780Z,18.40
2022-11-30T17:01:36.028Z,17.60
2022-11-30T17:02:28.160Z,18.30
2022-11-30T17:04:18.083Z,16.90
2022-11-30T17:05:13.956Z,18.50
2022-11-30T17:06:08.817Z,17.20
2022-11-30T17:07:02.814Z,17.70
2022-11-30T17:07:54.686Z,15.70
2022-11-30T17:08:47.134Z,18.30
2022-11-30T17:09:38.546Z,17.20
2022-11-30T17:10:30.328Z,17.00
2022-11-30T17:11:30.929Z,18.30
2022-11-30T17:12:22.312Z,18.20
2022-11-30T17:14:06.946Z,16.20
2022-11-30T17:15:01.549Z,16.40
2022-11-30T17:15:52.772Z,17.10
2022-11-30T17:16:44.185Z,18.30
2022-11-30T17:17:35.495Z,17.40
2022-11-30T17:18:29.637Z,18.10
2022-11-30T17:19:23.839Z,18.70
2022-11-30T17:20:17.131Z,18.60
2022-11-30T17:21:14.267Z,17.00
2022-11-30T17:22:06.269Z,16.60
2022-11-30T17:22:58.043Z,16.80
2022-11-30T17:23:49.616Z,16.40
2022-11-30T17:24:41.000Z,17.50
2022-11-30T17:25:32.533Z,16.30
2022-11-30T17:26:24.117Z,16.60
2022-11-30T17:27:15.693Z,18.40
2022-11-30T17:28:07.109Z,16.90
2022-11-30T17:28:58.710Z,18.00
2022-11-30T17:29:49.902Z,17.00
2022-11-30T17:30:41.219Z,17.50
2022-11-30T17:31:32.885Z,17.40
2022-11-30T17:32:24.378Z,17.50
2022-11-30T17:33:15.599Z,17.30
2022-11-30T17:34:08.576Z,17.10
2022-11-30T17:34:59.987Z,17.90
2022-11-30T17:35:51.536Z,16.10
2022-11-30T17:37:35.249Z,16.90
2022-11-30T17:38:27.641Z,17.60
2022-11-30T17:39:19.380Z,17.90
2022-11-30T17:40:15.891Z,16.30
2022-11-30T17:41:09.295Z,16.50
2022-11-30T17:42:02.475Z,17.20
2022-11-30T17:42:55.834Z,18.40
2022-11-30T17:43:48.716Z,18.30
2022-11-30T17:44:40.294Z,17.80
2022-11-30T17:45:31.819Z,17.00
2022-11-30T17:47:14.413Z,19.80
2022-11-30T17:48:05.749Z,17.80
2022-11-30T17:48:57.309Z,17.90
2022-11-30T17:49:49.254Z,18.40
